createdAt,value
2022-09-05T00:03:03.951Z,93.80
2022-09-05T00:06:06.959Z,94.00
2022-09-05T00:08:55.056Z,94.10
2022-09-05T00:11:41.125Z,94.40
2022-09-05T00:15:16.972Z,94.20
2022-09-05T00:23:15.485Z,94.20
2022-09-05T00:24:20.363Z,94.30
2022-09-05T00:24:26.774Z,94.60
2022-09-05T00:27:02.500Z,94.40
2022-09-05T00:31:07.075Z,94.60
2022-09-05T00:33:27.755Z,94.60
2022-09-05T00:36:18.878Z,95.00
2022-09-05T00:39:00.370Z,94.90
2022-09-05T00:41:34.260Z,94.80
2022-09-05T00:44:06.502Z,95.00
2022-09-05T00:46:45.122Z,95.10
2022-09-05T00:49:23.248Z,95.50
2022-09-05T00:52:03.513Z,95.20
2022-09-05T00:55:03.621Z,95.40
2022-09-05T00:58:20.192Z,95.40
2022-09-05T01:00:56.411Z,95.40
2022-09-05T01:03:58.495Z,95.30
2022-09-05T01:06:49.140Z,95.50
2022-09-05T01:09:39.670Z,95.70
2022-09-05T01:12:22.956Z,95.60
2022-09-05T01:15:17.656Z,95.60
2022-09-05T01:18:05.230Z,95.70
2022-09-05T01:20:58.071Z,95.80
2022-09-05T01:23:54.660Z,95.80
2022-09-05T01:26:53.797Z,95.90
2022-09-05T01:29:37.703Z,96.00
2022-09-05T01:32:27.816Z,96.10
2022-09-05T01:35:25.902Z,96.10
2022-09-05T01:38:06.927Z,96.40
2022-09-05T01:40:51.573Z,96.30
2022-09-05T01:44:20.921Z,96.40
2022-09-05T01:47:09.693Z,96.50
2022-09-05T01:50:00.726Z,96.30
2022-09-05T01:53:02.616Z,96.30
2022-09-05T01:56:02.500Z,96.40
2022-09-05T01:58:57.488Z,96.70
2022-09-05T02:01:36.451Z,96.40
2022-09-05T02:04:38.526Z,96.70
2022-09-05T02:07:30.099Z,96.70
2022-09-05T02:10:39.635Z,96.60
2022-09-05T02:13:24.039Z,96.50
2022-09-05T02:16:03.370Z,96.70
2022-09-05T02:18:55.202Z,96.60
2022-09-05T02:21:56.451Z,96.70
2022-09-05T02:24:37.593Z,97.00
2022-09-05T02:27:48.972Z,96.80
2022-09-05T02:30:19.877Z,96.60
2022-09-05T02:33:11.753Z,96.70
2022-09-05T02:35:51.569Z,96.90
2022-09-05T02:41:30.633Z,97.00
2022-09-05T02:45:06.150Z,97.10
2022-09-05T02:45:17.869Z,97.10
2022-09-05T02:47:34.624Z,97.00
2022-09-05T02:52:50.553Z,97.00
2022-09-05T02:57:26.057Z,97.60
2022-09-05T02:57:32.897Z,97.50
2022-09-05T02:59:41.867Z,97.60
2022-09-05T03:02:26.034Z,97.60
2022-09-05T03:05:05.801Z,97.90
2022-09-05T03:08:25.610Z,97.50
2022-09-05T03:11:46.841Z,97.60
2022-09-05T03:15:18.467Z,97.80
2022-09-05T03:18:25.256Z,97.90
2022-09-05T03:21:31.512Z,98.10
2022-09-05T03:24:48.149Z,98.00
2022-09-05T03:28:17.503Z,98.20
2022-09-05T03:31:22.541Z,98.30
2022-09-05T03:34:41.590Z,98.20
2022-09-05T03:38:04.926Z,98.50
2022-09-05T03:41:09.293Z,98.50
2022-09-05T03:44:25.985Z,98.70
2022-09-05T03:48:04.998Z,99.00
2022-09-05T03:55:41.139Z,99.20
2022-09-05T03:57:16.803Z,99.30
2022-09-05T03:57:42.395Z,99.40
2022-09-05T04:00:23.707Z,99.50
2022-09-05T04:08:11.226Z,99.50
2022-09-05T04:08:19.743Z,99.50
2022-09-05T04:09:12.495Z,99.50
2022-09-05T04:11:48.179Z,99.50
2022-09-05T04:14:27.195Z,99.50
2022-09-05T04:17:08.507Z,99.90
2022-09-05T04:19:50.152Z,99.80
2022-09-05T04:22:28.264Z,99.90
2022-09-05T04:25:07.621Z,99.90
2022-09-05T04:27:51.417Z,99.80
2022-09-05T04:30:42.647Z,99.70
2022-09-05T04:33:36.232Z,99.90
2022-09-05T04:36:23.038Z,99.90
2022-09-05T04:39:28.204Z,99.90
2022-09-05T04:42:18.097Z,99.90
2022-09-05T04:44:55.970Z,99.90
2022-09-05T04:47:31.777Z,99.90
2022-09-05T04:50:12.169Z,99.90
2022-09-05T04:53:13.783Z,99.90
2022-09-05T04:55:50.401Z,99.90
2022-09-05T04:58:56.146Z,99.90
2022-09-05T05:06:04.287Z,99.90
2022-09-05T05:06:09.090Z,99.90
2022-09-05T05:07:23.953Z,99.90
2022-09-05T05:10:33.293Z,99.90
2022-09-05T05:18:07.943Z,99.90
2022-09-05T05:18:11.986Z,99.90
2022-09-05T05:19:07.137Z,99.90
2022-09-05T05:21:53.317Z,99.90
2022-09-05T05:24:31.449Z,99.90
2022-09-05T05:27:10.312Z,99.90
2022-09-05T05:29:52.400Z,99.90
2022-09-05T05:32:44.846Z,99.90
2022-09-05T05:35:21.995Z,99.90
2022-09-05T05:37:58.075Z,99.90
2022-09-05T05:40:39.642Z,99.90
2022-09-05T05:43:25.987Z,99.90
2022-09-05T05:46:02.015Z,99.90
2022-09-05T05:48:39.551Z,99.90
2022-09-05T05:51:44.105Z,99.90
2022-09-05T05:54:29.941Z,99.90
2022-09-05T05:57:57.157Z,99.90
2022-09-05T06:00:51.450Z,99.90
2022-09-05T06:04:03.256Z,99.90
2022-09-05T06:06:57.509Z,99.90
2022-09-05T06:14:55.184Z,99.90
2022-09-05T06:15:01.053Z,99.90
2022-09-05T06:17:07.735Z,99.90
2022-09-05T06:21:41.207Z,99.90
2022-09-05T06:23:49.922Z,99.90
2022-09-05T06:26:45.907Z,99.90
2022-09-05T06:29:38.326Z,99.80
2022-09-05T06:32:28.389Z,99.90
2022-09-05T06:35:31.728Z,99.80
2022-09-05T06:38:24.424Z,99.70
2022-09-05T06:41:05.911Z,99.90
2022-09-05T06:44:03.407Z,99.90
2022-09-05T06:47:23.040Z,99.30
2022-09-05T06:49:43.985Z,98.70
2022-09-05T06:52:51.206Z,98.50
2022-09-05T06:55:50.419Z,98.00
2022-09-05T06:59:11.274Z,97.50
2022-09-05T07:02:00.150Z,97.70
2022-09-05T07:05:36.906Z,98.00
2022-09-05T07:07:43.742Z,97.60
2022-09-05T07:10:38.373Z,97.60
2022-09-05T07:13:18.457Z,97.50
2022-09-05T07:15:59.072Z,97.30
2022-09-05T07:18:44.929Z,96.70
2022-09-05T07:21:26.657Z,96.80
2022-09-05T07:24:08.546Z,96.60
2022-09-05T07:26:52.331Z,96.40
2022-09-05T07:29:29.874Z,96.70
2022-09-05T07:32:05.833Z,96.50
2022-09-05T07:34:40.617Z,96.70
2022-09-05T07:37:16.284Z,96.40
2022-09-05T07:39:52.931Z,96.80
2022-09-05T07:42:29.263Z,96.70
2022-09-05T07:45:08.644Z,97.00
2022-09-05T07:47:43.376Z,96.80
2022-09-05T07:51:54.785Z,96.90
2022-09-05T07:56:58.769Z,96.80
2022-09-05T07:57:13.132Z,96.50
2022-09-05T07:58:55.648Z,96.50
2022-09-05T08:01:27.915Z,96.10
2022-09-05T08:04:02.487Z,96.50
2022-09-05T08:07:48.227Z,96.70
2022-09-05T08:10:05.941Z,96.40
2022-09-05T08:12:28.686Z,96.90
2022-09-05T08:15:10.394Z,96.40
2022-09-05T08:17:59.513Z,96.40
2022-09-05T08:20:39.305Z,96.30
2022-09-05T08:23:36.345Z,95.80
2022-09-05T08:26:12.945Z,95.90
2022-09-05T08:28:57.014Z,96.20
2022-09-05T08:31:42.009Z,95.60
2022-09-05T08:34:18.657Z,95.20
2022-09-05T08:37:05.437Z,95.80
2022-09-05T08:39:38.746Z,95.20
2022-09-05T08:42:25.021Z,94.60
2022-09-05T08:46:39.830Z,94.70
2022-09-05T08:48:24.915Z,94.60
2022-09-05T08:51:18.776Z,95.00
2022-09-05T08:54:18.986Z,95.00
2022-09-05T08:57:01.471Z,94.40
2022-09-05T09:00:19.602Z,94.20
2022-09-05T09:03:04.893Z,94.40
2022-09-05T09:06:24.144Z,94.30
2022-09-05T09:09:32.994Z,93.70
2022-09-05T09:12:18.940Z,94.00
2022-09-05T09:14:59.520Z,93.70
2022-09-05T09:17:45.398Z,93.30
2022-09-05T09:20:29.942Z,93.00
2022-09-05T09:23:06.370Z,93.80
2022-09-05T09:25:42.857Z,93.30
2022-09-05T09:28:51.754Z,92.60
2022-09-05T09:31:55.647Z,93.30
2022-09-05T09:34:51.223Z,92.40
2022-09-05T09:38:10.192Z,92.40
2022-09-05T09:41:16.144Z,92.50
2022-09-05T09:44:55.581Z,92.50
2022-09-05T09:47:46.595Z,92.70
2022-09-05T09:50:29.565Z,92.30
2022-09-05T09:53:24.918Z,92.80
2022-09-05T09:56:32.945Z,92.70
2022-09-05T09:59:23.038Z,92.00
2022-09-05T10:03:18.487Z,91.80
2022-09-05T10:10:36.225Z,91.90
2022-09-05T10:10:52.401Z,92.10
2022-09-05T10:11:55.662Z,91.50
2022-09-05T10:15:30.744Z,92.00
2022-09-05T10:18:31.566Z,92.30
2022-09-05T10:21:39.016Z,91.20
2022-09-05T10:24:40.905Z,91.60
2022-09-05T10:27:32.809Z,91.50
2022-09-05T10:30:15.403Z,91.70
2022-09-05T10:35:11.052Z,91.00
2022-09-05T10:36:28.926Z,91.20
2022-09-05T10:39:21.322Z,91.20
2022-09-05T10:42:01.333Z,91.30
2022-09-05T10:44:41.815Z,90.90
2022-09-05T10:47:27.033Z,90.80
2022-09-05T10:50:09.051Z,90.40
2022-09-05T10:52:57.725Z,90.90
2022-09-05T10:55:36.721Z,90.60
2022-09-05T10:58:39.060Z,90.30
2022-09-05T11:02:26.038Z,90.60
2022-09-05T11:04:46.891Z,90.60
2022-09-05T11:07:27.821Z,90.10
2022-09-05T11:10:17.460Z,88.30
2022-09-05T11:13:17.630Z,90.40
2022-09-05T11:16:13.369Z,88.80
2022-09-05T11:19:05.177Z,89.50
2022-09-05T11:22:02.189Z,88.30
2022-09-05T11:24:52.261Z,87.90
2022-09-05T11:27:35.226Z,88.90
2022-09-05T11:30:09.876Z,86.40
2022-09-05T11:39:53.547Z,87.30
2022-09-05T11:39:54.949Z,88.40
2022-09-05T11:40:45.134Z,87.30
2022-09-05T11:44:25.236Z,87.20
2022-09-05T11:47:28.460Z,86.20
2022-09-05T11:50:38.243Z,86.00
2022-09-05T11:53:57.245Z,87.60
2022-09-05T11:57:33.753Z,86.80
2022-09-05T12:00:31.440Z,87.20
2022-09-05T12:03:59.704Z,86.40
2022-09-05T12:07:16.010Z,87.90
2022-09-05T12:10:45.913Z,86.10
2022-09-05T12:13:45.601Z,85.60
2022-09-05T12:16:47.904Z,85.30
2022-09-05T12:19:29.852Z,86.20
2022-09-05T12:22:33.761Z,86.70
2022-09-05T12:27:39.021Z,86.20
2022-09-05T12:29:27.199Z,85.80
2022-09-05T12:32:37.698Z,85.20
2022-09-05T12:36:04.363Z,85.40
2022-09-05T12:41:32.640Z,84.90
2022-09-05T12:41:34.650Z,86.70
2022-09-05T12:43:42.524Z,85.20
2022-09-05T12:46:07.738Z,84.40
2022-09-05T12:48:47.659Z,84.00
2022-09-05T12:51:46.065Z,84.60
2022-09-05T12:54:33.401Z,85.10
2022-09-05T13:02:05.230Z,84.60
2022-09-05T13:03:01.948Z,84.20
2022-09-05T13:03:28.193Z,84.90
2022-09-05T13:06:09.638Z,84.10
2022-09-05T13:09:00.822Z,83.90
2022-09-05T13:14:50.100Z,83.90
2022-09-05T13:14:55.288Z,84.30
2022-09-05T13:17:44.487Z,84.00
2022-09-05T13:20:30.510Z,83.90
2022-09-05T13:23:01.261Z,84.20
2022-09-05T13:25:33.084Z,84.00
2022-09-05T13:28:08.872Z,83.80
2022-09-05T13:36:43.437Z,84.20
2022-09-05T13:38:11.856Z,84.60
2022-09-05T13:38:11.969Z,85.00
2022-09-05T13:39:55.219Z,85.10
2022-09-05T13:42:28.629Z,83.30
2022-09-05T13:45:02.529Z,83.50
2022-09-05T13:48:13.352Z,82.20
2022-09-05T13:50:55.112Z,83.40
2022-09-05T13:53:36.764Z,83.70
2022-09-05T13:56:24.103Z,84.20
2022-09-05T13:59:02.240Z,83.70
2022-09-05T14:02:26.897Z,83.60
2022-09-05T14:05:21.117Z,83.40
2022-09-05T14:08:33.806Z,83.90
2022-09-05T14:11:41.206Z,83.40
2022-09-05T14:17:54.974Z,83.30
2022-09-05T14:20:43.339Z,84.30
2022-09-05T14:23:16.349Z,84.30
2022-09-05T14:25:54.152Z,83.80
2022-09-05T14:28:30.855Z,83.30
2022-09-05T14:32:51.783Z,83.30
2022-09-05T14:37:49.607Z,83.70
2022-09-05T14:38:04.425Z,83.50
2022-09-05T14:41:23.369Z,84.00
2022-09-05T14:44:20.184Z,83.20
2022-09-05T14:47:38.102Z,83.00
2022-09-05T14:50:59.686Z,82.50
2022-09-05T14:57:23.260Z,83.20
2022-09-05T15:02:44.407Z,83.60
2022-09-05T15:02:48.153Z,83.50
2022-09-05T15:05:35.689Z,83.80
2022-09-05T15:08:16.283Z,82.70
2022-09-05T15:12:17.315Z,82.90
2022-09-05T15:14:03.897Z,83.40
2022-09-05T15:16:43.875Z,82.90
2022-09-05T15:20:05.530Z,83.20
2022-09-05T15:22:43.209Z,83.30
2022-09-05T15:25:21.932Z,84.00
2022-09-05T15:27:52.984Z,83.60
2022-09-05T15:30:35.651Z,83.90
2022-09-05T15:33:25.471Z,83.70
2022-09-05T15:35:56.840Z,83.70
2022-09-05T15:38:33.550Z,83.60
2022-09-05T15:41:25.020Z,84.20
2022-09-05T15:44:01.580Z,84.10
2022-09-05T15:46:49.414Z,84.90
2022-09-05T15:49:37.042Z,84.70
2022-09-05T15:52:14.324Z,84.30
2022-09-05T15:54:51.956Z,85.00
2022-09-05T15:57:26.743Z,84.60
2022-09-05T16:00:00.179Z,85.40
2022-09-05T16:02:34.744Z,85.30
2022-09-05T16:10:31.483Z,84.30
2022-09-05T16:10:39.232Z,84.60
2022-09-05T16:12:07.430Z,84.50
2022-09-05T16:14:26.269Z,84.70
2022-09-05T16:23:20.341Z,84.40
2022-09-05T16:23:29.141Z,84.60
2022-09-05T16:23:34.734Z,84.70
2022-09-05T16:25:50.996Z,83.50
2022-09-05T16:28:24.334Z,83.70
2022-09-05T16:31:03.069Z,83.30
2022-09-05T16:33:38.997Z,83.20
2022-09-05T16:36:16.573Z,82.70
2022-09-05T16:38:55.727Z,82.70
2022-09-05T16:41:44.080Z,83.20
2022-09-05T16:44:23.367Z,83.40
2022-09-05T16:47:11.336Z,83.40
2022-09-05T16:54:21.927Z,82.40
2022-09-05T16:56:58.548Z,83.70
2022-09-05T16:59:33.013Z,83.60
2022-09-05T17:02:09.702Z,83.80
2022-09-05T17:05:05.806Z,83.80
2022-09-05T17:08:04.799Z,84.30
2022-09-05T17:10:57.257Z,84.50
2022-09-05T17:13:43.083Z,84.60
2022-09-05T17:16:21.832Z,85.00
2022-09-05T17:18:59.512Z,85.90
2022-09-05T17:22:49.736Z,85.00
2022-09-05T17:29:16.454Z,85.80
2022-09-05T17:29:26.024Z,85.10
2022-09-05T17:33:05.063Z,85.50
2022-09-05T17:35:42.784Z,85.60
2022-09-05T17:38:56.302Z,85.80
2022-09-05T17:41:50.989Z,86.10
2022-09-05T17:44:31.760Z,86.00
2022-09-05T17:47:14.686Z,85.80
2022-09-05T17:49:48.392Z,86.40
2022-09-05T17:52:24.905Z,85.70
2022-09-05T17:54:57.654Z,85.70
2022-09-05T17:57:45.370Z,86.00
2022-09-05T18:01:05.611Z,86.00
2022-09-05T18:04:08.327Z,86.20
2022-09-05T18:06:59.251Z,87.00
2022-09-05T18:10:14.909Z,86.90
2022-09-05T18:13:13.767Z,87.50
2022-09-05T18:16:13.643Z,87.00
2022-09-05T18:19:32.091Z,86.90
2022-09-05T18:21:55.059Z,87.20
2022-09-05T18:24:35.286Z,87.30
2022-09-05T18:28:03.814Z,87.40
2022-09-05T18:30:13.893Z,88.20
2022-09-05T18:32:53.357Z,87.60
2022-09-05T18:35:37.761Z,88.30
2022-09-05T18:38:51.850Z,87.60
2022-09-05T18:41:21.598Z,87.70
2022-09-05T18:44:12.111Z,87.70
2022-09-05T18:46:49.281Z,88.00
2022-09-05T18:50:22.377Z,88.30
2022-09-05T18:52:23.486Z,88.00
2022-09-05T18:56:10.320Z,88.00
2022-09-05T18:57:58.004Z,88.20
2022-09-05T19:00:44.673Z,88.90
2022-09-05T19:03:25.134Z,88.60
2022-09-05T19:06:34.679Z,88.60
2022-09-05T19:08:59.396Z,89.00
2022-09-05T19:11:38.304Z,88.80
2022-09-05T19:14:47.352Z,88.90
2022-09-05T19:17:27.746Z,88.90
2022-09-05T19:20:32.247Z,89.10
2022-09-05T19:23:11.542Z,89.40
2022-09-05T19:25:46.814Z,89.20
2022-09-05T19:36:46.968Z,89.40
2022-09-05T19:36:57.054Z,89.10
2022-09-05T19:37:08.704Z,89.80
2022-09-05T19:37:29.529Z,89.80
2022-09-05T19:46:06.828Z,89.60
2022-09-05T19:47:35.381Z,89.40
2022-09-05T19:47:35.725Z,89.20
2022-09-05T19:48:36.378Z,89.50
2022-09-05T19:51:16.783Z,89.20
2022-09-05T19:54:03.860Z,89.10
2022-09-05T19:56:39.861Z,89.80
2022-09-05T19:59:22.440Z,90.00
2022-09-05T20:01:56.593Z,90.20
2022-09-05T20:04:27.808Z,90.40
2022-09-05T20:06:58.363Z,90.70
2022-09-05T20:09:30.259Z,90.70
2022-09-05T20:12:03.668Z,90.70
2022-09-05T20:14:37.526Z,91.00
2022-09-05T20:17:29.765Z,90.80
2022-09-05T20:20:11.197Z,91.00
2022-09-05T20:22:49.709Z,90.80
2022-09-05T20:25:35.139Z,90.80
2022-09-05T20:28:10.992Z,91.00
2022-09-05T20:30:45.172Z,90.70
2022-09-05T20:33:24.448Z,90.80
2022-09-05T20:43:08.463Z,90.90
2022-09-05T20:43:29.407Z,90.40
2022-09-05T20:43:33.016Z,90.50
2022-09-05T20:44:50.987Z,90.20
2022-09-05T20:54:05.052Z,90.30
2022-09-05T20:54:08.194Z,90.30
2022-09-05T20:54:21.144Z,90.00
2022-09-05T20:56:23.956Z,88.80
2022-09-05T20:58:58.711Z,88.80
2022-09-05T21:01:32.816Z,88.60
2022-09-05T21:04:05.557Z,88.20
2022-09-05T21:06:41.569Z,88.20
2022-09-05T21:09:24.403Z,88.20
2022-09-05T21:11:56.373Z,87.90
2022-09-05T21:14:30.253Z,87.50
2022-09-05T21:17:04.884Z,87.20
2022-09-05T21:19:53.173Z,87.30
2022-09-05T21:22:43.433Z,87.20
2022-09-05T21:25:42.201Z,87.50
2022-09-05T21:28:32.621Z,87.40
2022-09-05T21:31:15.758Z,87.10
2022-09-05T21:33:48.086Z,86.80
2022-09-05T21:36:28.662Z,86.10
2022-09-05T21:39:02.032Z,85.90
2022-09-05T21:41:32.591Z,86.50
2022-09-05T21:47:40.313Z,86.00
2022-09-05T21:47:48.363Z,85.90
2022-09-05T21:49:49.583Z,85.70
2022-09-05T21:52:20.621Z,85.10
2022-09-05T21:59:16.154Z,84.50
2022-09-05T21:59:20.899Z,84.80
2022-09-05T22:00:38.711Z,84.20
2022-09-05T22:03:18.193Z,84.30
2022-09-05T22:05:50.329Z,84.10
2022-09-05T22:08:23.102Z,83.50
2022-09-05T22:10:55.903Z,83.60
2022-09-05T22:13:28.367Z,83.20
2022-09-05T22:16:01.571Z,83.10
2022-09-05T22:18:32.983Z,82.80
2022-09-05T22:21:32.818Z,82.90
2022-09-05T22:24:01.561Z,82.50
2022-09-05T22:27:01.248Z,82.90
2022-09-05T22:29:31.319Z,82.70
2022-09-05T22:32:01.656Z,82.40
2022-09-05T22:34:31.913Z,82.20
2022-09-05T22:37:02.195Z,82.20
2022-09-05T22:39:37.097Z,82.00
2022-09-05T22:42:11.181Z,81.90
2022-09-05T22:44:42.718Z,81.80
2022-09-05T22:47:14.368Z,81.80
2022-09-05T22:49:44.668Z,82.20
2022-09-05T22:52:15.290Z,82.00
2022-09-05T22:54:45.779Z,81.70
2022-09-05T22:57:18.598Z,81.40
2022-09-05T22:59:48.848Z,81.10
2022-09-05T23:02:19.234Z,81.30
2022-09-05T23:04:49.644Z,81.00
2022-09-05T23:07:20.946Z,80.90
2022-09-05T23:09:51.386Z,81.70
2022-09-05T23:12:24.403Z,81.30
2022-09-05T23:14:54.883Z,81.80
2022-09-05T23:17:25.174Z,81.40
2022-09-05T23:19:55.573Z,81.80
2022-09-05T23:22:26.025Z,81.80
2022-09-05T23:24:56.648Z,81.50
2022-09-05T23:27:30.204Z,81.90
2022-09-05T23:30:00.669Z,81.50
2022-09-05T23:32:31.097Z,81.60
2022-09-05T23:35:01.910Z,81.90
2022-09-05T23:37:32.547Z,81.70
2022-09-05T23:40:03.092Z,82.10
2022-09-05T23:42:36.246Z,81.80
2022-09-05T23:45:07.304Z,81.60
2022-09-05T23:47:38.811Z,81.70
2022-09-05T23:50:12.079Z,81.70
2022-09-05T23:52:43.428Z,82.10
2022-09-05T23:55:16.143Z,82.00
2022-09-05T23:57:49.834Z,81.90
